createdAt,value
2018-07-09T00:00:02.041Z,8.04672
2018-07-09T00:00:14.484Z,8.04672
2018-07-09T00:00:26.939Z,4.828032
2018-07-09T00:00:39.346Z,4.828032
2018-07-09T00:00:51.764Z,1.609344
2018-07-09T00:01:04.236Z,8.04672
2018-07-09T00:01:16.650Z,9.656064
2018-07-09T00:01:29.253Z,8.04672
2018-07-09T00:01:41.792Z,4.828032
2018-07-09T00:01:54.210Z,3.218688
2018-07-09T00:02:06.648Z,6.437376
2018-07-09T00:02:19.055Z,6.437376
2018-07-09T00:02:31.463Z,6.437376
2018-07-09T00:02:43.859Z,6.437376
2018-07-09T00:02:56.268Z,8.04672
2018-07-09T00:03:08.689Z,8.04672
2018-07-09T00:03:21.084Z,4.828032
2018-07-09T00:03:33.533Z,8.04672
2018-07-09T00:03:45.916Z,6.437376
2018-07-09T00:03:58.297Z,1.609344
2018-07-09T00:04:10.737Z,3.218688
2018-07-09T00:04:23.154Z,9.656064
2018-07-09T00:04:35.641Z,8.04672
2018-07-09T00:04:48.050Z,6.437376
2018-07-09T00:05:00.444Z,6.437376
2018-07-09T00:05:12.850Z,6.437376
2018-07-09T00:05:25.253Z,8.04672
2018-07-09T00:05:37.644Z,4.828032
2018-07-09T00:05:50.047Z,6.437376
2018-07-09T00:06:02.449Z,3.218688
2018-07-09T00:06:15.104Z,6.437376
2018-07-09T00:06:28.125Z,6.437376
2018-07-09T00:06:40.534Z,1.609344
2018-07-09T00:06:52.941Z,3.218688
2018-07-09T00:07:05.350Z,3.218688
2018-07-09T00:07:17.778Z,1.609344
2018-07-09T00:07:30.165Z,3.218688
2018-07-09T00:07:42.575Z,3.218688
2018-07-09T00:07:54.979Z,1.609344
2018-07-09T00:08:07.367Z,4.828032
2018-07-09T00:08:19.772Z,3.218688
2018-07-09T00:08:32.167Z,1.609344
2018-07-09T00:08:44.588Z,1.609344
2018-07-09T00:08:56.992Z,1.609344
2018-07-09T00:09:09.390Z,1.609344
2018-07-09T00:09:21.794Z,1.609344
2018-07-09T00:09:34.252Z,3.218688
2018-07-09T00:09:46.661Z,12.874752
2018-07-09T00:09:59.060Z,6.437376
2018-07-09T00:10:11.463Z,6.437376
2018-07-09T00:10:23.867Z,6.437376
2018-07-09T00:10:36.273Z,3.218688
2018-07-09T00:10:48.686Z,1.609344
2018-07-09T00:11:01.094Z,3.218688
2018-07-09T00:11:13.496Z,8.04672
2018-07-09T00:11:25.951Z,8.04672
2018-07-09T00:11:38.350Z,9.656064
2018-07-09T00:11:50.759Z,8.04672
2018-07-09T00:12:03.155Z,8.04672
2018-07-09T00:12:15.558Z,6.437376
2018-07-09T00:12:27.984Z,8.04672
2018-07-09T00:12:40.387Z,8.04672
2018-07-09T00:12:52.787Z,8.04672
2018-07-09T00:13:05.188Z,8.04672
2018-07-09T00:13:17.595Z,9.656064
2018-07-09T00:13:30.011Z,9.656064
2018-07-09T00:13:42.493Z,8.04672
2018-07-09T00:13:54.893Z,9.656064
2018-07-09T00:14:07.322Z,8.04672
2018-07-09T00:14:19.707Z,6.437376
2018-07-09T00:14:32.192Z,3.218688
2018-07-09T00:14:44.589Z,6.437376
2018-07-09T00:14:56.990Z,8.04672
2018-07-09T00:15:09.411Z,8.04672
2018-07-09T00:15:21.822Z,9.656064
2018-07-09T00:15:34.237Z,6.437376
2018-07-09T00:15:46.622Z,6.437376
2018-07-09T00:15:59.022Z,6.437376
2018-07-09T00:16:11.527Z,4.828032
2018-07-09T00:16:23.927Z,8.04672
2018-07-09T00:16:36.468Z,6.437376
2018-07-09T00:16:48.867Z,8.04672
2018-07-09T00:17:01.352Z,8.04672
2018-07-09T00:17:13.765Z,9.656064
2018-07-09T00:17:26.180Z,6.437376
2018-07-09T00:17:38.595Z,8.04672
2018-07-09T00:17:51.016Z,8.04672
2018-07-09T00:18:03.427Z,9.656064
2018-07-09T00:18:15.835Z,6.437376
2018-07-09T00:18:28.240Z,6.437376
2018-07-09T00:18:40.637Z,3.218688
2018-07-09T00:18:53.049Z,1.609344
2018-07-09T00:19:05.456Z,1.609344
2018-07-09T00:19:17.858Z,3.218688
2018-07-09T00:19:30.294Z,3.218688
2018-07-09T00:19:42.705Z,4.828032
2018-07-09T00:19:55.150Z,6.437376
2018-07-09T00:20:07.568Z,6.437376
2018-07-09T00:20:19.968Z,3.218688
2018-07-09T00:20:32.379Z,3.218688
2018-07-09T00:20:44.795Z,6.437376
2018-07-09T00:20:57.199Z,8.04672
2018-07-09T00:21:09.617Z,8.04672
2018-07-09T00:21:22.035Z,6.437376
2018-07-09T00:21:34.417Z,3.218688
2018-07-09T00:21:46.812Z,3.218688
2018-07-09T00:21:59.282Z,3.218688
2018-07-09T00:22:11.681Z,3.218688
2018-07-09T00:22:24.081Z,6.437376
2018-07-09T00:22:36.487Z,6.437376
2018-07-09T00:22:48.895Z,3.218688
2018-07-09T00:23:01.295Z,1.609344
2018-07-09T00:23:13.706Z,4.828032
2018-07-09T00:23:26.110Z,6.437376
2018-07-09T00:23:38.516Z,4.828032
2018-07-09T00:23:50.920Z,6.437376
2018-07-09T00:24:03.328Z,6.437376
2018-07-09T00:24:15.726Z,6.437376
2018-07-09T00:24:28.127Z,6.437376
2018-07-09T00:24:40.535Z,3.218688
2018-07-09T00:24:52.943Z,1.609344
2018-07-09T00:25:05.355Z,1.609344
2018-07-09T00:25:17.785Z,8.04672
2018-07-09T00:25:30.193Z,6.437376
2018-07-09T00:25:42.584Z,4.828032
2018-07-09T00:25:54.998Z,3.218688
2018-07-09T00:26:07.409Z,3.218688
2018-07-09T00:26:19.800Z,1.609344
2018-07-09T00:26:32.308Z,6.437376
2018-07-09T00:26:44.709Z,8.04672
2018-07-09T00:26:57.108Z,6.437376
2018-07-09T00:27:09.561Z,4.828032
2018-07-09T00:27:21.947Z,8.04672
2018-07-09T00:27:34.335Z,3.218688
2018-07-09T00:27:46.752Z,3.218688
2018-07-09T00:27:59.166Z,4.828032
2018-07-09T00:28:11.574Z,6.437376
2018-07-09T00:28:23.976Z,4.828032
2018-07-09T00:28:36.397Z,3.218688
2018-07-09T00:28:48.796Z,1.609344
2018-07-09T00:29:01.199Z,3.218688
2018-07-09T00:29:13.621Z,3.218688
2018-07-09T00:29:26.011Z,1.609344
2018-07-09T00:29:38.414Z,3.218688
2018-07-09T00:29:50.863Z,6.437376
2018-07-09T00:30:03.266Z,8.04672
2018-07-09T00:30:15.711Z,11.265408
2018-07-09T00:30:28.099Z,11.265408
2018-07-09T00:30:40.512Z,9.656064
2018-07-09T00:30:52.970Z,8.04672
2018-07-09T00:31:05.366Z,8.04672
2018-07-09T00:31:17.762Z,9.656064
2018-07-09T00:31:30.230Z,8.04672
2018-07-09T00:31:42.636Z,6.437376
2018-07-09T00:31:55.041Z,8.04672
2018-07-09T00:32:07.455Z,4.828032
2018-07-09T00:32:20.218Z,3.218688
2018-07-09T00:32:33.128Z,4.828032
2018-07-09T00:32:45.536Z,3.218688
2018-07-09T00:32:57.954Z,6.437376
2018-07-09T00:33:10.384Z,9.656064
2018-07-09T00:33:22.797Z,9.656064
2018-07-09T00:33:35.200Z,8.04672
2018-07-09T00:33:47.604Z,6.437376
2018-07-09T00:34:00.013Z,6.437376
2018-07-09T00:34:12.431Z,3.218688
2018-07-09T00:34:24.844Z,6.437376
2018-07-09T00:34:37.246Z,3.218688
2018-07-09T00:34:49.701Z,3.218688
2018-07-09T00:35:02.094Z,8.04672
2018-07-09T00:35:14.496Z,6.437376
2018-07-09T00:35:26.899Z,4.828032
2018-07-09T00:35:39.295Z,6.437376
2018-07-09T00:35:51.727Z,6.437376
2018-07-09T00:36:04.128Z,3.218688
2018-07-09T00:36:16.530Z,4.828032
2018-07-09T00:36:29.019Z,3.218688
2018-07-09T00:36:41.433Z,8.04672
2018-07-09T00:36:53.825Z,8.04672
2018-07-09T00:37:06.238Z,8.04672
2018-07-09T00:37:18.627Z,8.04672
2018-07-09T00:37:31.017Z,4.828032
2018-07-09T00:37:43.536Z,3.218688
2018-07-09T00:37:55.936Z,3.218688
2018-07-09T00:38:08.332Z,1.609344
2018-07-09T00:38:20.721Z,3.218688
2018-07-09T00:38:33.122Z,3.218688
2018-07-09T00:38:45.514Z,3.218688
2018-07-09T00:38:57.914Z,1.609344
2018-07-09T00:39:10.376Z,1.609344
2018-07-09T00:39:22.768Z,1.609344
2018-07-09T00:39:35.208Z,1.609344
2018-07-09T00:39:47.597Z,4.828032
2018-07-09T00:40:00.027Z,8.04672
2018-07-09T00:40:12.449Z,4.828032
2018-07-09T00:40:24.857Z,4.828032
2018-07-09T00:40:37.269Z,8.04672
2018-07-09T00:40:49.685Z,6.437376
2018-07-09T00:41:02.103Z,3.218688
2018-07-09T00:41:14.554Z,3.218688
2018-07-09T00:41:27.027Z,3.218688
2018-07-09T00:41:39.435Z,3.218688
2018-07-09T00:41:51.833Z,3.218688
2018-07-09T00:42:04.232Z,4.828032
2018-07-09T00:42:16.626Z,6.437376
2018-07-09T00:42:29.022Z,4.828032
2018-07-09T00:42:41.425Z,4.828032
2018-07-09T00:42:53.827Z,1.609344
2018-07-09T00:43:06.237Z,3.218688
2018-07-09T00:43:18.634Z,6.437376
2018-07-09T00:43:31.056Z,8.04672
2018-07-09T00:43:43.473Z,8.04672
2018-07-09T00:43:56.033Z,6.437376
2018-07-09T00:44:08.434Z,3.218688
2018-07-09T00:44:20.824Z,3.218688
2018-07-09T00:44:33.248Z,6.437376
2018-07-09T00:44:45.646Z,6.437376
2018-07-09T00:44:58.040Z,9.656064
2018-07-09T00:45:10.443Z,8.04672
2018-07-09T00:45:22.855Z,3.218688
2018-07-09T00:45:35.266Z,1.609344
2018-07-09T00:45:47.695Z,1.609344
2018-07-09T00:46:00.103Z,1.609344
2018-07-09T00:46:12.505Z,3.218688
2018-07-09T00:46:24.917Z,1.609344
2018-07-09T00:46:37.329Z,9.656064
2018-07-09T00:46:49.831Z,8.04672
2018-07-09T00:47:02.541Z,9.656064
2018-07-09T00:47:14.947Z,8.04672
2018-07-09T00:47:27.355Z,8.04672
2018-07-09T00:47:39.780Z,6.437376
2018-07-09T00:47:52.165Z,8.04672
2018-07-09T00:48:04.579Z,4.828032
2018-07-09T00:48:17.006Z,3.218688
2018-07-09T00:48:29.412Z,4.828032
2018-07-09T00:48:42.029Z,6.437376
2018-07-09T00:48:54.430Z,8.04672
2018-07-09T00:49:06.824Z,6.437376
2018-07-09T00:49:19.212Z,1.609344
2018-07-09T00:49:31.608Z,3.218688
2018-07-09T00:49:44.005Z,1.609344
2018-07-09T00:49:56.411Z,1.609344
2018-07-09T00:50:08.815Z,1.609344
2018-07-09T00:50:21.214Z,1.609344
2018-07-09T00:50:33.624Z,1.609344
2018-07-09T00:50:46.114Z,3.218688
2018-07-09T00:50:58.861Z,1.609344
2018-07-09T00:51:12.020Z,3.218688
2018-07-09T00:51:24.419Z,1.609344
2018-07-09T00:51:36.821Z,1.609344
2018-07-09T00:51:49.232Z,1.609344
2018-07-09T00:52:01.639Z,1.609344
2018-07-09T00:52:14.053Z,1.609344
2018-07-09T00:52:26.451Z,0
2018-07-09T00:52:38.851Z,0
2018-07-09T00:52:51.305Z,3.218688
2018-07-09T00:53:03.730Z,3.218688
2018-07-09T00:53:16.155Z,1.609344
2018-07-09T00:53:28.580Z,1.609344
2018-07-09T00:53:41.058Z,1.609344
2018-07-09T00:53:53.465Z,0
2018-07-09T00:54:05.991Z,1.609344
2018-07-09T00:54:18.407Z,3.218688
2018-07-09T00:54:30.822Z,3.218688
2018-07-09T00:54:43.223Z,3.218688
2018-07-09T00:54:55.769Z,1.609344
2018-07-09T00:55:08.172Z,3.218688
2018-07-09T00:55:20.577Z,3.218688
2018-07-09T00:55:32.980Z,1.609344
2018-07-09T00:55:45.389Z,1.609344
2018-07-09T00:55:57.870Z,3.218688
2018-07-09T00:56:10.262Z,1.609344
2018-07-09T00:56:22.666Z,1.609344
2018-07-09T00:56:35.073Z,0
2018-07-09T00:56:47.469Z,1.609344
2018-07-09T00:56:59.880Z,1.609344
2018-07-09T00:57:12.287Z,1.609344
2018-07-09T00:57:24.682Z,0
2018-07-09T00:57:37.072Z,1.609344
2018-07-09T00:57:49.472Z,1.609344
2018-07-09T00:58:01.865Z,1.609344
2018-07-09T00:58:14.282Z,3.218688
2018-07-09T00:58:26.687Z,0
2018-07-09T00:58:39.090Z,1.609344
2018-07-09T00:58:51.499Z,0
2018-07-09T00:59:03.900Z,0
2018-07-09T00:59:16.321Z,3.218688
2018-07-09T00:59:28.767Z,1.609344
2018-07-09T00:59:41.170Z,1.609344
2018-07-09T00:59:53.582Z,1.609344
2018-07-09T01:00:06.010Z,4.828032
2018-07-09T01:00:18.455Z,6.437376
2018-07-09T01:00:30.926Z,4.828032
2018-07-09T01:00:43.401Z,3.218688
2018-07-09T01:00:55.804Z,3.218688
2018-07-09T01:01:08.230Z,1.609344
2018-07-09T01:01:20.648Z,1.609344
2018-07-09T01:01:33.348Z,0
2018-07-09T01:01:45.882Z,4.828032
2018-07-09T01:01:58.294Z,4.828032
2018-07-09T01:02:10.759Z,3.218688
2018-07-09T01:02:23.166Z,6.437376
2018-07-09T01:02:35.601Z,1.609344
2018-07-09T01:02:48.034Z,3.218688
2018-07-09T01:03:00.460Z,3.218688
2018-07-09T01:03:12.884Z,6.437376
2018-07-09T01:03:25.342Z,1.609344
2018-07-09T01:03:37.770Z,4.828032
2018-07-09T01:03:50.217Z,3.218688
2018-07-09T01:04:02.634Z,3.218688
2018-07-09T01:04:15.058Z,3.218688
2018-07-09T01:04:27.514Z,3.218688
2018-07-09T01:04:39.914Z,3.218688
2018-07-09T01:04:52.330Z,4.828032
2018-07-09T01:05:04.767Z,3.218688
2018-07-09T01:05:17.194Z,3.218688
2018-07-09T01:05:29.608Z,0
2018-07-09T01:05:42.036Z,3.218688
2018-07-09T01:05:54.455Z,3.218688
2018-07-09T01:06:06.889Z,8.04672
2018-07-09T01:06:19.316Z,4.828032
2018-07-09T01:06:31.708Z,3.218688
2018-07-09T01:06:44.183Z,4.828032
2018-07-09T01:06:56.576Z,6.437376
2018-07-09T01:07:08.977Z,6.437376
2018-07-09T01:07:21.374Z,1.609344
2018-07-09T01:07:33.775Z,3.218688
2018-07-09T01:07:46.185Z,0
2018-07-09T01:07:58.585Z,4.828032
2018-07-09T01:08:11.016Z,6.437376
2018-07-09T01:08:23.431Z,4.828032
2018-07-09T01:08:35.850Z,3.218688
2018-07-09T01:08:48.261Z,3.218688
2018-07-09T01:09:00.658Z,6.437376
2018-07-09T01:09:13.066Z,8.04672
2018-07-09T01:09:25.470Z,4.828032
2018-07-09T01:09:37.882Z,3.218688
2018-07-09T01:09:50.276Z,3.218688
2018-07-09T01:10:02.687Z,4.828032
2018-07-09T01:10:15.073Z,6.437376
2018-07-09T01:10:27.485Z,9.656064
2018-07-09T01:10:39.922Z,9.656064
2018-07-09T01:10:52.344Z,9.656064
2018-07-09T01:11:05.086Z,9.656064
2018-07-09T01:11:18.261Z,3.218688
2018-07-09T01:11:30.684Z,3.218688
2018-07-09T01:11:43.138Z,3.218688
2018-07-09T01:11:55.558Z,3.218688
2018-07-09T01:12:07.998Z,3.218688
2018-07-09T01:12:20.402Z,3.218688
2018-07-09T01:12:32.841Z,8.04672
2018-07-09T01:12:45.240Z,8.04672
2018-07-09T01:12:57.661Z,6.437376
2018-07-09T01:13:10.074Z,3.218688
2018-07-09T01:13:22.466Z,8.04672
2018-07-09T01:13:34.861Z,6.437376
2018-07-09T01:13:47.406Z,8.04672
2018-07-09T01:13:59.806Z,6.437376
2018-07-09T01:14:12.209Z,1.609344
2018-07-09T01:14:24.633Z,3.218688
2018-07-09T01:14:37.045Z,6.437376
2018-07-09T01:14:49.446Z,4.828032
2018-07-09T01:15:01.986Z,6.437376
2018-07-09T01:15:14.398Z,8.04672
2018-07-09T01:15:26.791Z,8.04672
2018-07-09T01:15:39.194Z,8.04672
2018-07-09T01:15:51.595Z,6.437376
2018-07-09T01:16:03.992Z,6.437376
2018-07-09T01:16:16.395Z,1.609344
2018-07-09T01:16:28.790Z,1.609344
2018-07-09T01:16:41.254Z,1.609344
2018-07-09T01:16:53.661Z,3.218688
2018-07-09T01:17:06.074Z,1.609344
2018-07-09T01:17:18.469Z,1.609344
2018-07-09T01:17:31.078Z,1.609344
2018-07-09T01:17:43.499Z,3.218688
2018-07-09T01:17:55.931Z,3.218688
2018-07-09T01:18:08.343Z,1.609344
2018-07-09T01:18:20.750Z,3.218688
2018-07-09T01:18:33.159Z,3.218688
2018-07-09T01:18:45.570Z,1.609344
2018-07-09T01:18:57.969Z,3.218688
2018-07-09T01:19:10.403Z,1.609344
2018-07-09T01:19:22.798Z,1.609344
2018-07-09T01:19:35.194Z,1.609344
2018-07-09T01:19:47.585Z,1.609344
2018-07-09T01:19:59.995Z,1.609344
2018-07-09T01:20:12.448Z,1.609344
2018-07-09T01:20:25.392Z,3.218688
2018-07-09T01:20:38.254Z,1.609344
2018-07-09T01:20:50.699Z,1.609344
2018-07-09T01:21:03.103Z,1.609344
2018-07-09T01:21:15.507Z,6.437376
2018-07-09T01:21:27.899Z,4.828032
2018-07-09T01:21:40.298Z,6.437376
2018-07-09T01:21:52.699Z,4.828032
2018-07-09T01:22:05.100Z,4.828032
2018-07-09T01:22:17.498Z,6.437376
2018-07-09T01:22:29.949Z,3.218688
2018-07-09T01:22:42.339Z,3.218688
2018-07-09T01:22:54.741Z,1.609344
2018-07-09T01:23:07.138Z,3.218688
2018-07-09T01:23:19.530Z,3.218688
2018-07-09T01:23:31.937Z,3.218688
2018-07-09T01:23:44.356Z,1.609344
2018-07-09T01:23:56.757Z,1.609344
2018-07-09T01:24:09.163Z,0
2018-07-09T01:24:21.596Z,1.609344
2018-07-09T01:24:33.994Z,1.609344
2018-07-09T01:24:46.395Z,1.609344
2018-07-09T01:24:58.805Z,1.609344
2018-07-09T01:25:11.227Z,1.609344
2018-07-09T01:25:23.617Z,1.609344
2018-07-09T01:25:36.013Z,1.609344
2018-07-09T01:25:48.420Z,3.218688
2018-07-09T01:26:00.811Z,0
2018-07-09T01:26:13.210Z,1.609344
2018-07-09T01:26:25.614Z,3.218688
2018-07-09T01:26:38.013Z,1.609344
2018-07-09T01:26:50.411Z,0
2018-07-09T01:27:02.814Z,0
2018-07-09T01:27:15.229Z,0
2018-07-09T01:27:27.683Z,0
2018-07-09T01:27:40.152Z,0
2018-07-09T01:27:52.572Z,1.609344
2018-07-09T01:28:04.976Z,0
2018-07-09T01:28:17.386Z,0
2018-07-09T01:28:29.797Z,1.609344
2018-07-09T01:28:42.200Z,1.609344
2018-07-09T01:28:54.599Z,1.609344
2018-07-09T01:29:07.005Z,1.609344
2018-07-09T01:29:19.405Z,0
2018-07-09T01:29:31.794Z,0
2018-07-09T01:29:44.186Z,0
2018-07-09T01:29:56.596Z,1.609344
2018-07-09T01:30:08.998Z,0
2018-07-09T01:30:21.408Z,0
2018-07-09T01:30:33.801Z,1.609344
2018-07-09T01:30:46.209Z,1.609344
2018-07-09T01:30:58.615Z,1.609344
2018-07-09T01:31:11.011Z,3.218688
2018-07-09T01:31:23.436Z,1.609344
2018-07-09T01:31:35.836Z,3.218688
2018-07-09T01:31:48.240Z,1.609344
2018-07-09T01:32:00.645Z,3.218688
2018-07-09T01:32:13.050Z,1.609344
2018-07-09T01:32:25.457Z,1.609344
2018-07-09T01:32:37.901Z,1.609344
2018-07-09T01:32:50.333Z,1.609344
2018-07-09T01:33:02.733Z,1.609344
2018-07-09T01:33:15.135Z,3.218688
2018-07-09T01:33:27.536Z,3.218688
2018-07-09T01:33:39.937Z,3.218688
2018-07-09T01:33:52.363Z,1.609344
2018-07-09T01:34:04.785Z,1.609344
2018-07-09T01:34:17.182Z,0
2018-07-09T01:34:29.593Z,1.609344
2018-07-09T01:34:42.007Z,1.609344
2018-07-09T01:34:54.453Z,1.609344
2018-07-09T01:35:06.854Z,1.609344
2018-07-09T01:35:19.284Z,1.609344
2018-07-09T01:35:31.692Z,3.218688
2018-07-09T01:35:44.111Z,3.218688
2018-07-09T01:35:56.525Z,3.218688
2018-07-09T01:36:08.914Z,3.218688
2018-07-09T01:36:21.339Z,0
2018-07-09T01:36:33.733Z,1.609344
2018-07-09T01:36:46.132Z,1.609344
2018-07-09T01:36:58.543Z,1.609344
2018-07-09T01:37:10.941Z,3.218688
2018-07-09T01:37:23.363Z,1.609344
2018-07-09T01:37:35.792Z,3.218688
2018-07-09T01:37:48.327Z,1.609344
2018-07-09T01:38:00.725Z,3.218688
2018-07-09T01:38:13.135Z,1.609344
2018-07-09T01:38:25.539Z,0
2018-07-09T01:38:37.936Z,1.609344
2018-07-09T01:38:50.371Z,1.609344
2018-07-09T01:39:02.778Z,1.609344
2018-07-09T01:39:15.173Z,1.609344
2018-07-09T01:39:27.591Z,3.218688
2018-07-09T01:39:39.991Z,1.609344
2018-07-09T01:39:52.396Z,1.609344
2018-07-09T01:40:04.794Z,1.609344
2018-07-09T01:40:17.219Z,1.609344
2018-07-09T01:40:29.615Z,1.609344
2018-07-09T01:40:42.012Z,0
2018-07-09T01:40:54.425Z,0
2018-07-09T01:41:06.849Z,1.609344
2018-07-09T01:41:19.253Z,1.609344
2018-07-09T01:41:31.691Z,4.828032
2018-07-09T01:41:44.093Z,3.218688
2018-07-09T01:41:56.506Z,8.04672
2018-07-09T01:42:08.915Z,4.828032
2018-07-09T01:42:21.312Z,6.437376
2018-07-09T01:42:33.696Z,4.828032
2018-07-09T01:42:46.145Z,3.218688
2018-07-09T01:42:58.560Z,3.218688
2018-07-09T01:43:10.979Z,1.609344
2018-07-09T01:43:23.380Z,6.437376
2018-07-09T01:43:35.776Z,9.656064
2018-07-09T01:43:48.184Z,4.828032
2018-07-09T01:44:00.813Z,6.437376
2018-07-09T01:44:13.205Z,3.218688
2018-07-09T01:44:25.634Z,3.218688
2018-07-09T01:44:38.040Z,1.609344
2018-07-09T01:44:50.447Z,0
2018-07-09T01:45:02.856Z,1.609344
2018-07-09T01:45:15.250Z,1.609344
2018-07-09T01:45:27.639Z,3.218688
2018-07-09T01:45:40.040Z,4.828032
2018-07-09T01:45:52.438Z,6.437376
2018-07-09T01:46:04.843Z,6.437376
2018-07-09T01:46:17.260Z,6.437376
2018-07-09T01:46:29.655Z,8.04672
2018-07-09T01:46:42.235Z,3.218688
2018-07-09T01:46:54.636Z,8.04672
2018-07-09T01:47:07.459Z,6.437376
2018-07-09T01:47:19.861Z,4.828032
2018-07-09T01:47:32.306Z,8.04672
2018-07-09T01:47:44.721Z,4.828032
2018-07-09T01:47:57.114Z,4.828032
2018-07-09T01:48:09.517Z,3.218688
2018-07-09T01:48:21.921Z,8.04672
2018-07-09T01:48:34.315Z,6.437376
2018-07-09T01:48:46.896Z,6.437376
2018-07-09T01:48:59.282Z,6.437376
2018-07-09T01:49:11.693Z,4.828032
2018-07-09T01:49:24.094Z,1.609344
2018-07-09T01:49:36.497Z,1.609344
2018-07-09T01:49:48.905Z,3.218688
2018-07-09T01:50:01.315Z,3.218688
2018-07-09T01:50:13.740Z,4.828032
2018-07-09T01:50:26.141Z,1.609344
2018-07-09T01:50:38.603Z,6.437376
2018-07-09T01:50:50.992Z,6.437376
2018-07-09T01:51:03.395Z,3.218688
2018-07-09T01:51:15.791Z,6.437376
2018-07-09T01:51:28.184Z,3.218688
2018-07-09T01:51:40.575Z,3.218688
2018-07-09T01:51:52.969Z,3.218688
2018-07-09T01:52:05.381Z,9.656064
2018-07-09T01:52:17.772Z,9.656064
2018-07-09T01:52:30.277Z,8.04672
2018-07-09T01:52:42.693Z,1.609344
2018-07-09T01:52:55.104Z,1.609344
2018-07-09T01:53:07.670Z,4.828032
2018-07-09T01:53:20.080Z,3.218688
2018-07-09T01:53:32.476Z,1.609344
2018-07-09T01:53:44.885Z,1.609344
2018-07-09T01:53:57.428Z,6.437376
2018-07-09T01:54:09.840Z,9.656064
2018-07-09T01:54:22.228Z,8.04672
2018-07-09T01:54:34.629Z,4.828032
2018-07-09T01:54:47.022Z,3.218688
2018-07-09T01:54:59.412Z,1.609344
2018-07-09T01:55:11.844Z,1.609344
2018-07-09T01:55:24.237Z,8.04672
2018-07-09T01:55:36.631Z,8.04672
2018-07-09T01:55:49.025Z,6.437376
2018-07-09T01:56:01.423Z,8.04672
2018-07-09T01:56:13.874Z,8.04672
2018-07-09T01:56:26.277Z,3.218688
2018-07-09T01:56:38.679Z,6.437376
2018-07-09T01:56:51.097Z,3.218688
2018-07-09T01:57:03.493Z,6.437376
2018-07-09T01:57:15.899Z,3.218688
2018-07-09T01:57:28.294Z,4.828032
2018-07-09T01:57:40.709Z,1.609344
2018-07-09T01:57:53.113Z,3.218688
2018-07-09T01:58:05.530Z,1.609344
2018-07-09T01:58:17.929Z,0
2018-07-09T01:58:30.344Z,3.218688
2018-07-09T01:58:42.740Z,8.04672
2018-07-09T01:58:55.172Z,6.437376
2018-07-09T01:59:07.568Z,6.437376
2018-07-09T01:59:19.976Z,6.437376
2018-07-09T01:59:32.361Z,6.437376
2018-07-09T01:59:44.751Z,8.04672
2018-07-09T01:59:57.153Z,3.218688
2018-07-09T02:00:09.570Z,8.04672
2018-07-09T02:00:21.996Z,8.04672
2018-07-09T02:00:34.436Z,8.04672
2018-07-09T02:00:46.869Z,4.828032
2018-07-09T02:00:59.275Z,4.828032
2018-07-09T02:01:11.671Z,6.437376
2018-07-09T02:01:24.146Z,3.218688
2018-07-09T02:01:36.698Z,3.218688
2018-07-09T02:01:49.139Z,6.437376
2018-07-09T02:02:01.533Z,6.437376
2018-07-09T02:02:13.932Z,3.218688
2018-07-09T02:02:26.394Z,3.218688
2018-07-09T02:02:38.806Z,4.828032
2018-07-09T02:02:51.207Z,6.437376
2018-07-09T02:03:03.617Z,6.437376
2018-07-09T02:03:16.018Z,8.04672
2018-07-09T02:03:28.437Z,8.04672
2018-07-09T02:03:40.844Z,6.437376
2018-07-09T02:03:53.267Z,3.218688
2018-07-09T02:04:05.693Z,3.218688
2018-07-09T02:04:18.115Z,4.828032
2018-07-09T02:04:30.522Z,3.218688
2018-07-09T02:04:42.937Z,1.609344
2018-07-09T02:04:55.339Z,3.218688
2018-07-09T02:05:07.752Z,6.437376
2018-07-09T02:05:20.159Z,6.437376
2018-07-09T02:05:32.578Z,8.04672
2018-07-09T02:05:44.985Z,6.437376
2018-07-09T02:05:57.393Z,9.656064
2018-07-09T02:06:09.822Z,8.04672
2018-07-09T02:06:22.247Z,6.437376
2018-07-09T02:06:34.656Z,8.04672
2018-07-09T02:06:47.133Z,6.437376
2018-07-09T02:06:59.531Z,11.265408
2018-07-09T02:07:11.936Z,6.437376
2018-07-09T02:07:24.338Z,9.656064
2018-07-09T02:07:36.743Z,6.437376
2018-07-09T02:07:49.155Z,8.04672
2018-07-09T02:08:01.543Z,9.656064
2018-07-09T02:08:13.931Z,6.437376
2018-07-09T02:08:26.321Z,8.04672
2018-07-09T02:08:38.718Z,6.437376
2018-07-09T02:08:51.118Z,8.04672
2018-07-09T02:09:03.528Z,4.828032
2018-07-09T02:09:15.920Z,3.218688
2018-07-09T02:09:28.330Z,1.609344
2018-07-09T02:09:40.746Z,1.609344
2018-07-09T02:09:53.159Z,3.218688
2018-07-09T02:10:05.583Z,3.218688
2018-07-09T02:10:17.985Z,3.218688
2018-07-09T02:10:30.384Z,1.609344
2018-07-09T02:10:42.794Z,3.218688
2018-07-09T02:10:55.264Z,4.828032
2018-07-09T02:11:07.652Z,3.218688
2018-07-09T02:11:20.057Z,4.828032
2018-07-09T02:11:32.458Z,3.218688
2018-07-09T02:11:44.892Z,1.609344
2018-07-09T02:11:57.297Z,6.437376
2018-07-09T02:12:09.698Z,4.828032
2018-07-09T02:12:22.116Z,8.04672
2018-07-09T02:12:34.523Z,8.04672
2018-07-09T02:12:46.906Z,8.04672
2018-07-09T02:12:59.312Z,6.437376
2018-07-09T02:13:11.709Z,4.828032
2018-07-09T02:13:24.130Z,8.04672
2018-07-09T02:13:36.539Z,6.437376
2018-07-09T02:13:48.932Z,9.656064
2018-07-09T02:14:01.318Z,8.04672
2018-07-09T02:14:13.717Z,9.656064
2018-07-09T02:14:26.143Z,11.265408
2018-07-09T02:14:38.532Z,9.656064
2018-07-09T02:14:50.935Z,6.437376
2018-07-09T02:15:03.344Z,8.04672
2018-07-09T02:15:15.924Z,9.656064
2018-07-09T02:15:28.337Z,8.04672
2018-07-09T02:15:40.920Z,12.874752
2018-07-09T02:15:53.336Z,9.656064
2018-07-09T02:16:05.748Z,9.656064
2018-07-09T02:16:18.208Z,8.04672
2018-07-09T02:16:30.776Z,4.828032
2018-07-09T02:16:43.177Z,3.218688
2018-07-09T02:16:55.612Z,9.656064
2018-07-09T02:17:08.011Z,8.04672
2018-07-09T02:17:20.409Z,6.437376
2018-07-09T02:17:32.807Z,8.04672
2018-07-09T02:17:45.225Z,9.656064
2018-07-09T02:17:57.624Z,12.874752
2018-07-09T02:18:10.214Z,8.04672
2018-07-09T02:18:22.615Z,4.828032
2018-07-09T02:18:35.009Z,8.04672
2018-07-09T02:18:47.422Z,9.656064
2018-07-09T02:18:59.869Z,6.437376
2018-07-09T02:19:12.280Z,6.437376
2018-07-09T02:19:24.685Z,3.218688
2018-07-09T02:19:37.088Z,1.609344
2018-07-09T02:19:49.486Z,1.609344
2018-07-09T02:20:01.960Z,1.609344
2018-07-09T02:20:14.368Z,3.218688
2018-07-09T02:20:26.969Z,3.218688
2018-07-09T02:20:40.266Z,8.04672
2018-07-09T02:20:52.681Z,8.04672
2018-07-09T02:21:05.090Z,8.04672
2018-07-09T02:21:17.535Z,9.656064
2018-07-09T02:21:29.947Z,6.437376
2018-07-09T02:21:42.365Z,6.437376
2018-07-09T02:21:54.759Z,6.437376
2018-07-09T02:22:07.167Z,8.04672
2018-07-09T02:22:19.575Z,8.04672
2018-07-09T02:22:31.993Z,6.437376
2018-07-09T02:22:44.400Z,8.04672
2018-07-09T02:22:56.783Z,6.437376
2018-07-09T02:23:09.201Z,8.04672
2018-07-09T02:23:21.604Z,4.828032
2018-07-09T02:23:34.046Z,8.04672
2018-07-09T02:23:46.447Z,4.828032
2018-07-09T02:23:58.865Z,9.656064
2018-07-09T02:24:11.303Z,6.437376
2018-07-09T02:24:23.708Z,4.828032
2018-07-09T02:24:36.107Z,8.04672
2018-07-09T02:24:48.509Z,9.656064
2018-07-09T02:25:00.910Z,8.04672
2018-07-09T02:25:13.321Z,6.437376
2018-07-09T02:25:25.717Z,3.218688
2018-07-09T02:25:38.121Z,3.218688
2018-07-09T02:25:50.534Z,1.609344
2018-07-09T02:26:02.938Z,4.828032
2018-07-09T02:26:15.341Z,3.218688
2018-07-09T02:26:27.741Z,6.437376
2018-07-09T02:26:40.134Z,6.437376
2018-07-09T02:26:52.538Z,4.828032
2018-07-09T02:27:04.934Z,1.609344
2018-07-09T02:27:17.367Z,4.828032
2018-07-09T02:27:29.760Z,1.609344
2018-07-09T02:27:42.152Z,6.437376